METAR Data
IDs: Format: Raw Decoded Include TAF

Data at: 0111 UTC 06 Dec 2019

METAR for:KDCA (Washington/National, VA, US)
Text:KDCA 060052Z 30006KT 10SM CLR 07/M05 A3013 RMK AO2 SLP203 T00671050
Temperature: 6.7°C ( 44°F)
Dewpoint: -5.0°C ( 23°F) [RH = 43%]
Pressure (altimeter):30.13 inches Hg (1020.4 mb) [Sea level pressure: 1020.3 mb]
Winds:from the WNW (300 degrees) at 7 MPH (6 knots; 3.1 m/s)
Visibility:10 or more sm (16+ km)
Ceiling:at least 12,000 feet AGL
Clouds:sky clear below 12,000 feet AGL